Terminal Aerodrome Forecast
Issued by NWS Tallahassee, FL

Current Version | Previous Version | Text Only | Print | Product List | Glossary On
Versions: 1 2 3 4 5 6 7 8 9 10 11 12 13 14 15 16 17 18 19
000
FTUS42 KTAE 301100
TAFTLH
TAF
KTLH 301120Z 3012/0112 02004KT 5SM -DZ BR SCT007 OVC019
      TEMPO 3012/3016 BKN005
     FM301600 03005KT P6SM BKN025
     FM302000 03005KT P6SM SCT030
     FM010200 VRB02KT P6SM SCT250=

USA.gov is the U.S. government's official web portal to all federal, state and local government web resources and services.